Time;durP1;ratioP1;P1;durP2;ratioP2;P2;SDS_P1;SDS_P2;PMS_P1;PMS_P2;Temp;Humidity;BMP_temperature;BMP_pressure;BME280_temperature;BME280_humidity;BME280_pressure;Samples;Min_cycle;Max_cycle;Signal;HPM_P1;HPM_P2
2022/10/31 00:00:47;;;;;;;0.70;0.57;;;11.10;99.90;;;;;;5037324;28;20060;-80
2022/10/31 00:03:16;;;;;;;0.30;0.30;;;11.00;99.90;;;;;;5038845;28;20522;-80
2022/10/31 00:05:43;;;;;;;0.40;0.40;;;11.10;99.90;;;;;;5040163;28;20558;-80
2022/10/31 00:08:10;;;;;;;0.30;0.30;;;11.00;99.90;;;;;;5023189;28;20057;-80
2022/10/31 00:10:39;;;;;;;0.30;0.30;;;11.00;99.90;;;;;;5023099;28;20057;-82
2022/10/31 00:13:06;;;;;;;0.40;0.40;;;11.00;99.90;;;;;;5018682;28;20076;-82
2022/10/31 00:15:34;;;;;;;0.73;0.43;;;11.00;99.90;;;;;;5002892;28;20500;-81
2022/10/31 00:18:02;;;;;;;0.40;0.30;;;11.10;99.90;;;;;;5007775;28;20045;-81
2022/10/31 00:20:29;;;;;;;0.40;0.40;;;11.00;99.90;;;;;;5028517;28;20495;-82
2022/10/31 00:23:03;;;;;;;0.47;0.47;;;11.00;99.90;;;;;;5007561;28;20048;-82
2022/10/31 00:25:33;;;;;;;0.50;0.50;;;11.00;99.90;;;;;;5017865;28;20056;-82
2022/10/31 00:28:00;;;;;;;1.00;0.90;;;10.90;99.90;;;;;;4997513;28;20053;-82
2022/10/31 00:30:28;;;;;;;0.65;0.57;;;10.90;99.90;;;;;;5028030;28;20125;-79
2022/10/31 00:32:55;;;;;;;0.93;0.73;;;10.90;99.90;;;;;;5014917;28;20511;-81
2022/10/31 00:35:24;;;;;;;1.48;0.75;;;10.90;99.90;;;;;;5016570;28;20052;-82
2022/10/31 00:37:51;;;;;;;0.70;0.70;;;10.90;99.90;;;;;;5032942;28;20057;-81
2022/10/31 00:40:18;;;;;;;0.80;0.63;;;10.80;99.90;;;;;;5011741;28;20791;-81
2022/10/31 00:42:45;;;;;;;0.55;0.50;;;10.80;99.90;;;;;;5000072;28;20425;-81
2022/10/31 00:45:13;;;;;;;0.55;0.50;;;10.80;99.90;;;;;;5022454;28;20058;-81
2022/10/31 00:47:40;;;;;;;0.52;0.50;;;10.80;99.90;;;;;;5022525;28;20057;-81
2022/10/31 00:50:07;;;;;;;0.43;0.43;;;10.80;99.90;;;;;;5020456;28;20051;-81
2022/10/31 00:52:34;;;;;;;0.40;0.40;;;10.80;99.90;;;;;;5020004;28;20520;-81
2022/10/31 00:55:01;;;;;;;0.30;0.30;;;10.80;99.90;;;;;;5021384;28;20493;-81
2022/10/31 00:57:30;;;;;;;0.40;0.35;;;10.80;99.90;;;;;;5022056;28;20436;-81
2022/10/31 00:59:57;;;;;;;0.43;0.43;;;10.70;99.90;;;;;;5040619;28;20053;-81
2022/10/31 01:02:24;;;;;;;0.45;0.40;;;10.70;99.90;;;;;;5037591;28;20059;-81
2022/10/31 01:04:51;;;;;;;0.30;0.30;;;10.70;99.90;;;;;;5040321;28;20076;-82
2022/10/31 01:07:18;;;;;;;0.47;0.43;;;10.70;99.90;;;;;;5037845;28;20053;-81
2022/10/31 01:09:46;;;;;;;0.50;0.50;;;10.60;99.90;;;;;;5022503;28;20247;-81
2022/10/31 01:12:12;;;;;;;0.40;0.40;;;10.60;99.90;;;;;;5032867;28;20540;-81
2022/10/31 01:14:44;;;;;;;0.20;0.20;;;10.60;99.90;;;;;;5039074;28;20160;-82
2022/10/31 01:17:12;;;;;;;0.73;0.35;;;10.60;99.90;;;;;;5039711;28;20841;-82
2022/10/31 01:19:39;;;;;;;0.30;0.30;;;10.60;99.90;;;;;;5014221;28;20071;-82
2022/10/31 01:22:07;;;;;;;0.30;0.30;;;10.60;99.90;;;;;;5021282;28;20483;-81
2022/10/31 01:24:35;;;;;;;0.57;0.47;;;10.50;99.90;;;;;;5034077;28;20045;-81
2022/10/31 01:27:02;;;;;;;0.50;0.40;;;10.50;99.90;;;;;;5019135;28;20067;-82
2022/10/31 01:29:29;;;;;;;0.40;0.40;;;10.50;99.90;;;;;;5006781;28;20168;-82
2022/10/31 01:31:56;;;;;;;0.60;0.52;;;10.50;99.90;;;;;;5030053;28;20541;-81
2022/10/31 01:34:23;;;;;;;0.60;0.50;;;10.50;99.90;;;;;;5032246;28;20136;-81
2022/10/31 01:36:51;;;;;;;0.50;0.50;;;10.50;99.90;;;;;;5037179;28;20424;-81
2022/10/31 01:39:19;;;;;;;0.40;0.40;;;10.50;99.90;;;;;;5008357;28;20354;-82
2022/10/31 01:41:52;;;;;;;0.40;0.40;;;10.50;99.90;;;;;;5019826;28;20053;-81
2022/10/31 01:44:19;;;;;;;0.40;0.40;;;10.50;99.90;;;;;;5022209;28;20110;-82
2022/10/31 01:46:58;;;;;;;0.40;0.40;;;10.60;99.90;;;;;;5024015;28;20138;-81
2022/10/31 01:49:43;;;;;;;0.60;0.50;;;10.70;99.90;;;;;;5029599;28;20057;-90
2022/10/31 01:52:18;;;;;;;1.27;0.52;;;10.90;99.90;;;;;;5032917;28;20055;-88
2022/10/31 01:54:51;;;;;;;1.08;0.52;;;11.00;99.90;;;;;;5045248;28;20106;-88
2022/10/31 01:57:18;;;;;;;0.73;0.45;;;11.20;99.90;;;;;;5029115;28;20091;-88
2022/10/31 01:59:47;;;;;;;1.08;0.60;;;11.40;99.90;;;;;;5034494;28;20143;-88
2022/10/31 02:02:15;;;;;;;0.60;0.60;;;11.50;99.90;;;;;;5048655;28;20087;-89
2022/10/31 02:04:45;;;;;;;0.73;0.60;;;11.60;99.90;;;;;;5013358;28;20416;-89
2022/10/31 02:07:18;;;;;;;1.75;0.65;;;11.70;99.90;;;;;;5026943;28;20059;-89
2022/10/31 02:09:45;;;;;;;;;;;11.80;99.90;;;;;;5031568;28;20052;-88
2022/10/31 02:12:13;;;;;;;0.68;0.40;;;11.90;99.90;;;;;;5033076;28;20387;-89
2022/10/31 02:14:40;;;;;;;0.45;0.30;;;11.80;99.90;;;;;;5032562;28;20053;-89
2022/10/31 02:17:07;;;;;;;0.32;0.32;;;11.90;99.90;;;;;;5015670;28;20060;-89
2022/10/31 02:19:51;;;;;;;0.50;0.50;;;11.90;99.90;;;;;;5012544;28;20418;-89
2022/10/31 02:22:27;;;;;;;0.60;0.50;;;11.80;99.90;;;;;;5022878;28;20164;-88
2022/10/31 02:25:16;;;;;;;1.05;0.40;;;11.90;99.90;;;;;;5045934;28;20544;-89
2022/10/31 02:28:11;;;;;;;0.73;0.50;;;11.90;99.90;;;;;;5031614;28;20045;-89
2022/10/31 02:30:38;;;;;;;0.77;0.50;;;11.90;99.90;;;;;;5041536;28;20049;-88
2022/10/31 02:33:17;;;;;;;0.40;0.40;;;12.00;99.90;;;;;;5044874;28;20157;-89
2022/10/31 02:35:50;;;;;;;0.55;0.50;;;12.00;99.90;;;;;;5034279;28;20119;-87
2022/10/31 02:38:46;;;;;;;0.98;0.40;;;12.00;99.90;;;;;;5032986;28;20448;-89
2022/10/31 02:41:13;;;;;;;0.70;0.57;;;12.00;99.90;;;;;;5049009;28;20049;-89
2022/10/31 02:44:08;;;;;;;0.95;0.60;;;12.00;99.90;;;;;;5053311;28;20048;-88
2022/10/31 02:47:04;;;;;;;1.10;0.50;;;12.00;99.90;;;;;;5048842;28;20049;-88
2022/10/31 02:49:43;;;;;;;0.50;0.50;;;12.00;99.90;;;;;;5027719;28;20072;-90
2022/10/31 02:52:24;;;;;;;1.25;0.63;;;12.00;99.90;;;;;;5016009;28;20041;-90
2022/10/31 02:54:52;;;;;;;0.85;0.60;;;12.00;99.90;;;;;;5050986;28;20457;-89
2022/10/31 02:57:23;;;;;;;0.98;0.50;;;12.10;99.90;;;;;;5036532;28;20150;-89
2022/10/31 02:59:55;;;;;;;0.95;0.47;;;12.10;99.90;;;;;;5032631;28;20056;-90
2022/10/31 03:02:45;;;;;;;0.35;0.35;;;12.10;99.90;;;;;;5018395;28;20312;-90
2022/10/31 03:05:43;;;;;;;1.67;0.70;;;12.10;99.90;;;;;;5030653;28;20045;-91
2022/10/31 03:08:24;;;;;;;1.23;0.52;;;12.20;99.90;;;;;;5035522;28;20081;-89
2022/10/31 03:10:58;;;;;;;0.30;0.30;;;12.20;99.90;;;;;;5036090;28;20826;-90
2022/10/31 03:13:45;;;;;;;1.25;0.40;;;12.20;99.90;;;;;;5038890;28;20051;-90
2022/10/31 03:16:14;;;;;;;1.05;0.60;;;12.20;99.90;;;;;;5053517;28;20075;-91
2022/10/31 03:18:47;;;;;;;0.35;0.35;;;12.30;99.90;;;;;;5052787;28;20049;-90
2022/10/31 03:21:16;;;;;;;;;;;12.30;99.90;;;;;;5037306;28;20055;-90
2022/10/31 03:23:44;;;;;;;0.50;0.40;;;12.30;99.90;;;;;;5053699;28;19920;-89
2022/10/31 03:26:11;;;;;;;0.40;0.40;;;12.30;99.90;;;;;;5036942;28;20045;-90
2022/10/31 03:28:43;;;;;;;2.10;0.55;;;12.30;99.90;;;;;;5052925;28;20160;-91
2022/10/31 03:31:10;;;;;;;0.40;0.40;;;12.30;99.90;;;;;;5036881;28;20167;-90
2022/10/31 03:33:38;;;;;;;0.50;0.47;;;12.30;99.90;;;;;;5053110;28;20599;-90
2022/10/31 03:36:06;;;;;;;0.98;0.50;;;12.40;99.90;;;;;;5052858;28;20075;-91
2022/10/31 03:38:33;;;;;;;0.98;0.50;;;12.40;99.90;;;;;;5053478;28;20052;-91
2022/10/31 03:41:00;;;;;;;0.80;0.60;;;12.40;99.90;;;;;;5053383;28;20055;-91
2022/10/31 03:43:30;;;;;;;1.55;0.60;;;12.40;99.90;;;;;;5036916;28;20049;-91
2022/10/31 03:45:57;;;;;;;0.47;0.40;;;12.40;99.90;;;;;;5020826;28;20408;-91
2022/10/31 03:48:24;;;;;;;1.70;0.50;;;12.40;99.90;;;;;;5047997;28;20337;-90
2022/10/31 03:51:08;;;;;;;0.70;0.40;;;12.40;99.90;;;;;;5045710;28;20060;-92
2022/10/31 03:53:39;;;;;;;0.73;0.40;;;12.40;99.90;;;;;;5036066;28;20049;-91
2022/10/31 03:56:38;;;;;;;1.20;0.50;;;12.40;99.90;;;;;;5034612;28;20523;-90
2022/10/31 03:59:14;;;;;;;0.43;0.40;;;12.40;99.90;;;;;;5033329;28;20057;-90
2022/10/31 04:01:45;;;;;;;0.45;0.43;;;12.30;99.90;;;;;;5021012;28;20078;-90
2022/10/31 04:04:11;;;;;;;0.82;0.47;;;12.30;99.90;;;;;;5054070;28;20063;-90
2022/10/31 04:06:40;;;;;;;0.93;0.50;;;12.30;99.90;;;;;;5034789;28;20045;-90
2022/10/31 04:09:06;;;;;;;1.98;0.47;;;12.30;99.90;;;;;;5034905;28;20053;-88
2022/10/31 04:11:36;;;;;;;0.73;0.65;;;12.30;99.90;;;;;;5017225;28;20053;-90
2022/10/31 04:14:02;;;;;;;1.00;0.50;;;12.30;99.90;;;;;;5033414;28;20045;-89
2022/10/31 04:16:29;;;;;;;1.02;0.70;;;12.20;99.90;;;;;;5015548;28;20050;-90
2022/10/31 04:18:56;;;;;;;0.50;0.40;;;12.20;99.90;;;;;;5013701;28;20678;-90
2022/10/31 04:21:28;;;;;;;1.75;0.45;;;12.20;99.90;;;;;;5031752;28;20049;-89
2022/10/31 04:23:55;;;;;;;1.15;0.55;;;12.20;99.90;;;;;;5031170;28;20056;-90
2022/10/31 04:26:21;;;;;;;1.92;0.55;;;12.20;99.90;;;;;;5031803;28;20064;-90
2022/10/31 04:28:48;;;;;;;0.60;0.60;;;12.20;99.90;;;;;;5041816;28;20045;-91
2022/10/31 04:31:16;;;;;;;0.90;0.57;;;12.20;99.90;;;;;;5018261;28;20049;-88
2022/10/31 04:33:42;;;;;;;1.05;0.50;;;12.20;99.90;;;;;;5036440;28;20056;-90
2022/10/31 04:36:10;;;;;;;0.40;0.40;;;12.10;99.90;;;;;;5035347;28;20046;-90
2022/10/31 04:38:36;;;;;;;0.50;0.50;;;12.10;99.90;;;;;;5032355;28;20449;-88
2022/10/31 04:41:03;;;;;;;0.60;0.40;;;12.10;99.90;;;;;;5015901;28;20171;-90
2022/10/31 04:43:30;;;;;;;1.10;0.50;;;12.10;99.90;;;;;;5021410;28;20049;-89
2022/10/31 04:45:57;;;;;;;0.85;0.50;;;12.10;99.90;;;;;;5053410;28;20065;-92
2022/10/31 04:48:24;;;;;;;0.63;0.47;;;12.10;99.90;;;;;;5019392;28;20052;-89
2022/10/31 04:50:51;;;;;;;0.43;0.32;;;12.00;99.90;;;;;;5034379;28;20059;-89
2022/10/31 04:53:19;;;;;;;1.10;0.57;;;12.00;99.90;;;;;;5052066;28;20046;-91
2022/10/31 04:55:46;;;;;;;0.88;0.50;;;12.00;99.90;;;;;;5035757;28;20238;-90
2022/10/31 04:58:13;;;;;;;1.42;0.60;;;12.00;99.90;;;;;;5017507;28;20049;-91
2022/10/31 05:00:40;;;;;;;0.98;0.47;;;12.00;99.90;;;;;;5031244;28;20057;-90
2022/10/31 05:03:07;;;;;;;0.80;0.60;;;12.00;99.90;;;;;;5037847;28;20120;-90
2022/10/31 05:05:34;;;;;;;1.38;0.60;;;12.00;99.90;;;;;;5050744;28;20053;-90
2022/10/31 05:08:01;;;;;;;0.65;0.40;;;11.90;99.90;;;;;;5033276;28;20061;-89
2022/10/31 05:10:29;;;;;;;0.52;0.30;;;11.90;99.90;;;;;;5029532;28;20045;-87
2022/10/31 05:12:57;;;;;;;0.77;0.50;;;11.90;99.90;;;;;;5001218;28;20148;-90
2022/10/31 05:15:26;;;;;;;0.80;0.45;;;11.90;99.90;;;;;;5054299;28;20063;-90
2022/10/31 05:17:53;;;;;;;0.50;0.50;;;11.80;99.90;;;;;;5026292;28;20077;-89
2022/10/31 05:20:22;;;;;;;0.50;0.50;;;11.80;99.90;;;;;;5040447;28;20140;-89
2022/10/31 05:22:50;;;;;;;0.70;0.60;;;11.70;99.90;;;;;;5034018;28;20046;-90
2022/10/31 05:25:18;;;;;;;0.82;0.60;;;11.70;99.90;;;;;;5035183;28;20135;-90
2022/10/31 05:27:46;;;;;;;1.77;0.88;;;11.60;99.90;;;;;;5033611;28;20041;-89
2022/10/31 05:30:16;;;;;;;1.38;0.60;;;11.60;99.90;;;;;;5035389;28;20064;-90
2022/10/31 05:32:44;;;;;;;1.15;0.82;;;11.60;99.90;;;;;;5036772;28;20053;-90
2022/10/31 05:35:12;;;;;;;0.50;0.50;;;11.60;99.90;;;;;;5036362;28;20052;-89
2022/10/31 05:37:39;;;;;;;0.65;0.60;;;11.50;99.90;;;;;;5017586;28;20049;-89
2022/10/31 05:40:07;;;;;;;0.68;0.60;;;11.50;99.90;;;;;;5035484;28;20053;-89
2022/10/31 05:42:34;;;;;;;0.30;0.30;;;11.40;99.90;;;;;;5019095;28;20060;-89
2022/10/31 05:45:01;;;;;;;0.43;0.40;;;11.40;99.90;;;;;;5037744;28;20056;-89
2022/10/31 05:47:28;;;;;;;0.40;0.30;;;11.40;99.90;;;;;;5018304;28;20048;-89
2022/10/31 05:49:55;;;;;;;0.90;0.47;;;11.30;99.90;;;;;;5034908;28;20050;-87
2022/10/31 05:52:22;;;;;;;0.50;0.40;;;11.30;99.90;;;;;;5039106;28;20060;-87
2022/10/31 05:54:49;;;;;;;0.73;0.57;;;11.20;99.90;;;;;;5025616;28;20041;-88
2022/10/31 05:57:16;;;;;;;1.00;0.70;;;11.20;99.90;;;;;;5012454;28;20551;-88
2022/10/31 05:59:43;;;;;;;0.40;0.40;;;11.20;99.90;;;;;;5035193;28;20049;-86
2022/10/31 06:02:13;;;;;;;0.88;0.75;;;11.10;99.90;;;;;;5023383;28;20049;-87
2022/10/31 06:04:40;;;;;;;0.40;0.40;;;11.00;99.90;;;;;;5043002;28;20053;-86
2022/10/31 06:07:07;;;;;;;0.88;0.55;;;11.00;99.90;;;;;;5032371;28;20045;-87
2022/10/31 06:09:34;;;;;;;0.65;0.50;;;10.90;99.90;;;;;;5027848;28;20049;-88
2022/10/31 06:12:01;;;;;;;0.93;0.40;;;10.90;99.90;;;;;;5019154;28;20045;-87
2022/10/31 06:14:28;;;;;;;0.40;0.40;;;10.80;99.90;;;;;;5044738;28;20476;-87
2022/10/31 06:16:55;;;;;;;0.50;0.50;;;10.80;99.90;;;;;;5008223;28;20197;-86
2022/10/31 06:19:23;;;;;;;0.50;0.40;;;10.80;99.90;;;;;;5028957;28;20536;-87
2022/10/31 06:21:50;;;;;;;0.88;0.70;;;10.80;99.90;;;;;;5026940;28;20473;-86
2022/10/31 06:24:18;;;;;;;0.40;0.40;;;10.80;99.90;;;;;;5000543;28;20053;-87
2022/10/31 06:26:44;;;;;;;0.32;0.22;;;10.80;99.90;;;;;;5034702;28;20339;-86
2022/10/31 06:29:11;;;;;;;0.40;0.40;;;10.80;99.90;;;;;;5013912;28;20051;-87
2022/10/31 06:31:38;;;;;;;0.40;0.40;;;10.70;99.90;;;;;;5034843;28;20088;-85
2022/10/31 06:34:05;;;;;;;0.40;0.40;;;10.70;99.90;;;;;;5044098;28;20139;-86
2022/10/31 06:36:32;;;;;;;1.05;0.40;;;10.70;99.90;;;;;;5027570;28;20040;-87
2022/10/31 06:39:00;;;;;;;0.93;0.43;;;10.70;99.90;;;;;;5016591;28;20129;-87
2022/10/31 06:41:27;;;;;;;0.30;0.30;;;10.70;99.90;;;;;;5040606;28;20053;-86
2022/10/31 06:43:54;;;;;;;0.90;0.32;;;10.60;99.90;;;;;;5023176;28;20142;-87
2022/10/31 06:46:20;;;;;;;0.40;0.40;;;10.60;99.90;;;;;;5026138;28;20052;-86
2022/10/31 06:48:48;;;;;;;1.75;0.50;;;10.60;99.90;;;;;;5026760;28;20046;-86
2022/10/31 06:51:14;;;;;;;0.40;0.40;;;10.50;99.90;;;;;;5038187;28;20057;-86
2022/10/31 06:53:41;;;;;;;0.65;0.50;;;10.50;99.90;;;;;;5008297;28;20045;-86
2022/10/31 06:56:08;;;;;;;0.63;0.63;;;10.50;99.90;;;;;;5010542;28;20124;-85
2022/10/31 06:58:35;;;;;;;0.52;0.40;;;10.40;99.90;;;;;;5021257;28;20098;-85
2022/10/31 07:01:02;;;;;;;0.45;0.45;;;10.40;99.90;;;;;;5004436;28;20060;-86
2022/10/31 07:03:28;;;;;;;1.38;0.70;;;10.40;99.90;;;;;;5035896;28;20044;-86
2022/10/31 07:05:56;;;;;;;0.70;0.70;;;10.40;99.90;;;;;;5023456;28;20062;-86
2022/10/31 07:08:24;;;;;;;0.40;0.32;;;10.30;99.90;;;;;;5010434;28;20041;-86
2022/10/31 07:10:52;;;;;;;0.40;0.40;;;10.30;99.90;;;;;;5009737;28;20058;-86
2022/10/31 07:13:24;;;;;;;1.15;0.52;;;10.40;99.90;;;;;;5016726;28;20045;-86
2022/10/31 07:15:58;;;;;;;0.70;0.60;;;10.30;99.90;;;;;;5034274;28;20045;-85
2022/10/31 07:18:25;;;;;;;0.70;0.40;;;10.30;99.90;;;;;;5019564;28;20053;-87
2022/10/31 07:20:52;;;;;;;0.57;0.40;;;10.40;99.90;;;;;;5036785;28;20054;-86
2022/10/31 07:23:19;;;;;;;0.98;0.50;;;10.40;99.90;;;;;;5021335;28;20037;-86
2022/10/31 07:25:46;;;;;;;0.40;0.40;;;10.40;99.90;;;;;;5028239;28;20052;-87
2022/10/31 07:28:13;;;;;;;0.40;0.40;;;10.40;99.90;;;;;;5029416;28;20041;-87
2022/10/31 07:30:39;;;;;;;0.38;0.35;;;10.40;99.90;;;;;;5035805;28;20080;-87
2022/10/31 07:33:07;;;;;;;0.95;0.57;;;10.50;99.90;;;;;;5031784;28;20047;-87
2022/10/31 07:35:35;;;;;;;0.32;0.32;;;10.50;99.90;;;;;;5035352;28;20071;-86
2022/10/31 07:38:09;;;;;;;1.90;0.82;;;10.50;99.90;;;;;;5030310;28;20049;-86
2022/10/31 07:40:36;;;;;;;0.63;0.50;;;10.50;99.90;;;;;;5022097;28;20049;-86
2022/10/31 07:43:03;;;;;;;0.45;0.45;;;10.50;99.90;;;;;;5031428;28;20044;-86
2022/10/31 07:45:37;;;;;;;0.40;0.32;;;10.60;99.90;;;;;;5039679;28;20045;-87
2022/10/31 07:48:05;;;;;;;0.55;0.47;;;10.60;99.90;;;;;;5017353;28;20052;-87
2022/10/31 07:50:34;;;;;;;0.43;0.43;;;10.70;99.90;;;;;;5027360;28;20069;-86
2022/10/31 07:53:06;;;;;;;0.30;0.30;;;10.70;99.90;;;;;;5022403;28;20057;-86
2022/10/31 07:55:33;;;;;;;0.90;0.60;;;10.80;99.90;;;;;;5019589;28;20042;-87
2022/10/31 07:58:10;;;;;;;0.38;0.30;;;10.80;99.90;;;;;;5010240;28;20063;-85
2022/10/31 08:00:37;;;;;;;0.40;0.40;;;10.80;99.90;;;;;;5041427;28;20052;-87
2022/10/31 08:03:15;;;;;;;0.30;0.30;;;10.90;99.90;;;;;;5032595;28;20053;-86
2022/10/31 08:05:44;;;;;;;0.40;0.40;;;11.00;99.90;;;;;;5033627;28;20049;-86
2022/10/31 08:08:11;;;;;;;0.35;0.30;;;11.00;99.90;;;;;;5029407;28;20045;-87
2022/10/31 08:10:38;;;;;;;0.75;0.60;;;11.20;99.90;;;;;;5034462;28;20037;-86
2022/10/31 08:13:10;;;;;;;0.47;0.47;;;11.20;99.90;;;;;;5035554;28;20049;-87
2022/10/31 08:15:39;;;;;;;0.40;0.40;;;11.30;99.90;;;;;;5015262;28;20045;-86
2022/10/31 08:18:06;;;;;;;0.88;0.60;;;11.40;99.90;;;;;;5031757;28;20051;-86
2022/10/31 08:20:33;;;;;;;0.52;0.50;;;11.50;99.90;;;;;;5032662;28;20052;-83
2022/10/31 08:23:02;;;;;;;0.93;0.55;;;11.50;99.90;;;;;;5031833;28;20056;-86
2022/10/31 08:25:30;;;;;;;0.40;0.40;;;11.60;99.90;;;;;;5019574;28;20081;-86
2022/10/31 08:28:04;;;;;;;1.52;0.50;;;11.70;99.90;;;;;;5020431;28;20198;-86
2022/10/31 08:30:31;;;;;;;0.40;0.40;;;11.80;99.90;;;;;;5033757;28;20128;-86
2022/10/31 08:33:08;;;;;;;0.40;0.40;;;11.90;99.90;;;;;;5002284;28;20381;-87
2022/10/31 08:35:35;;;;;;;0.50;0.40;;;12.00;99.90;;;;;;4991576;28;20053;-86
2022/10/31 08:38:02;;;;;;;0.65;0.50;;;12.10;99.90;;;;;;5020948;28;20056;-87
2022/10/31 08:40:30;;;;;;;0.47;0.47;;;12.20;99.90;;;;;;5017116;28;20558;-85
2022/10/31 08:43:14;;;;;;;2.97;1.02;;;12.20;99.90;;;;;;5002415;28;20072;-86
2022/10/31 08:45:42;;;;;;;0.55;0.50;;;12.40;99.90;;;;;;5027745;28;20060;-88
2022/10/31 08:48:13;;;;;;;0.95;0.90;;;12.40;99.90;;;;;;5011177;28;20045;-87
2022/10/31 08:50:42;;;;;;;0.32;0.30;;;12.50;99.90;;;;;;5026765;28;20475;-87
2022/10/31 08:53:15;;;;;;;0.73;0.50;;;12.60;99.90;;;;;;5011268;28;20342;-86
2022/10/31 08:55:42;;;;;;;0.47;0.43;;;12.70;99.90;;;;;;5011653;28;20136;-89
2022/10/31 08:58:11;;;;;;;1.13;0.50;;;12.90;99.90;;;;;;5018421;28;20049;-86
2022/10/31 09:00:39;;;;;;;1.25;0.50;;;13.10;99.90;;;;;;5019213;28;20482;-87
2022/10/31 09:03:11;;;;;;;1.10;0.63;;;13.30;99.90;;;;;;5019413;28;20073;-88
2022/10/31 09:05:38;;;;;;;0.55;0.40;;;13.50;99.90;;;;;;5018179;28;20093;-86
2022/10/31 09:08:07;;;;;;;0.60;0.60;;;13.50;99.90;;;;;;4995659;28;20045;-86
2022/10/31 09:10:41;;;;;;;1.75;0.50;;;13.60;99.90;;;;;;5008294;28;20064;-86
2022/10/31 09:13:16;;;;;;;1.75;0.90;;;13.70;99.90;;;;;;5032186;28;20041;-86
2022/10/31 09:15:44;;;;;;;0.75;0.50;;;13.70;99.90;;;;;;5000274;28;20055;-86
2022/10/31 09:18:11;;;;;;;0.55;0.45;;;13.80;99.90;;;;;;4994969;28;20904;-84
2022/10/31 09:20:39;;;;;;;1.30;0.60;;;13.80;99.90;;;;;;5019983;28;20060;-85
2022/10/31 09:23:21;;;;;;;2.28;0.82;;;13.80;99.90;;;;;;4995053;28;20064;-85
2022/10/31 09:25:48;;;;;;;2.00;0.95;;;13.90;99.90;;;;;;4990146;28;20057;-85
2022/10/31 09:28:21;;;;;;;1.83;0.80;;;13.90;99.90;;;;;;5011867;28;20103;-83
2022/10/31 09:30:49;;;;;;;0.40;0.40;;;14.00;99.90;;;;;;5022997;28;20077;-84
2022/10/31 09:33:16;;;;;;;0.88;0.55;;;14.10;99.90;;;;;;5025710;28;20441;-86
2022/10/31 09:35:43;;;;;;;1.25;0.85;;;14.20;99.90;;;;;;4993656;28;20068;-86
2022/10/31 09:38:11;;;;;;;0.90;0.55;;;14.20;99.90;;;;;;5000721;28;20060;-86
2022/10/31 09:40:43;;;;;;;1.45;0.60;;;14.30;99.90;;;;;;5022767;28;20057;-73
2022/10/31 09:43:25;;;;;;;1.92;0.68;;;14.30;99.90;;;;;;5024901;28;20132;-74
2022/10/31 09:46:13;;;;;;;0.45;0.43;;;14.40;99.90;;;;;;5024490;28;20545;-74
2022/10/31 09:48:52;;;;;;;0.68;0.60;;;14.50;99.90;;;;;;5021765;28;20049;-73
2022/10/31 09:51:29;;;;;;;0.93;0.60;;;14.50;99.90;;;;;;5033422;28;20047;-72
2022/10/31 09:54:04;;;;;;;1.45;0.70;;;14.70;99.90;;;;;;5039079;28;20314;-78
2022/10/31 09:56:31;;;;;;;1.55;0.90;;;14.70;99.90;;;;;;5029281;28;20635;-73
2022/10/31 09:59:00;;;;;;;0.98;0.50;;;14.80;99.90;;;;;;5018536;28;20068;-73
2022/10/31 10:01:45;;;;;;;1.15;0.50;;;15.00;99.90;;;;;;5025129;28;20125;-73
2022/10/31 10:04:30;;;;;;;0.80;0.65;;;15.10;99.90;;;;;;5042997;28;20392;-73
2022/10/31 10:06:57;;;;;;;1.15;0.90;;;15.10;99.90;;;;;;5045085;28;20052;-73
2022/10/31 10:09:27;;;;;;;1.75;0.90;;;15.10;99.90;;;;;;5043911;28;20055;-73
2022/10/31 10:12:14;;;;;;;2.17;1.10;;;15.10;99.90;;;;;;5025241;28;20049;-72
2022/10/31 10:14:44;;;;;;;1.40;0.80;;;15.20;99.90;;;;;;5023175;28;20049;-72
2022/10/31 10:17:31;;;;;;;2.20;0.75;;;15.10;99.90;;;;;;5025714;28;20057;-73
2022/10/31 10:20:43;;;;;;;1.13;0.77;;;15.10;99.90;;;;;;5035475;28;20140;-72
2022/10/31 10:23:23;;;;;;;2.00;0.90;;;15.10;99.90;;;;;;5044630;28;20049;-74
2022/10/31 10:25:54;;;;;;;1.10;0.80;;;15.00;99.90;;;;;;5041550;28;20424;-72
2022/10/31 10:28:38;;;;;;;1.80;0.88;;;15.00;99.90;;;;;;5041558;28;20072;-72
2022/10/31 10:31:11;;;;;;;1.27;0.80;;;15.00;99.90;;;;;;5044614;28;20056;-72
2022/10/31 10:33:41;;;;;;;1.33;0.60;;;15.00;99.90;;;;;;5043370;28;20049;-72
2022/10/31 10:36:14;;;;;;;1.17;0.60;;;15.00;99.90;;;;;;5011169;28;20064;-72
2022/10/31 10:38:52;;;;;;;1.10;0.60;;;15.00;99.90;;;;;;5028105;28;20396;-72
2022/10/31 10:41:21;;;;;;;1.40;0.90;;;15.00;99.90;;;;;;5011965;28;20057;-74
2022/10/31 10:43:49;;;;;;;1.10;0.80;;;15.00;99.90;;;;;;5044456;28;20057;-72
2022/10/31 10:49:44;;;;;;;1.73;0.85;;;15.20;99.90;;;;;;5044397;28;20053;-72
2022/10/31 10:52:30;;;;;;;0.88;0.85;;;15.20;99.90;;;;;;5042637;28;20810;-72
2022/10/31 10:55:43;;;;;;;1.55;0.90;;;15.20;99.90;;;;;;5045403;28;20055;-72
2022/10/31 10:58:10;;;;;;;3.22;1.40;;;15.20;99.90;;;;;;5044525;28;20075;-72
2022/10/31 11:00:41;;;;;;;1.13;0.82;;;15.30;99.90;;;;;;5043942;28;20048;-73
2022/10/31 11:03:09;;;;;;;1.50;1.00;;;15.40;99.90;;;;;;5026754;28;20493;-72
2022/10/31 11:05:47;;;;;;;1.63;0.60;;;15.40;99.90;;;;;;5023413;28;20156;-72
2022/10/31 11:08:31;;;;;;;1.23;0.80;;;15.60;99.90;;;;;;5023336;28;20080;-72
2022/10/31 11:10:57;;;;;;;;;;;15.80;99.90;;;;;;5007903;28;20060;-72
2022/10/31 11:13:24;;;;;;;2.38;0.90;;;15.90;99.90;;;;;;5033175;28;19952;-73
2022/10/31 11:15:58;;;;;;;1.55;0.82;;;16.10;99.90;;;;;;5024475;28;20131;-73
2022/10/31 11:18:26;;;;;;;1.58;0.95;;;16.10;99.90;;;;;;5009596;28;20049;-73
2022/10/31 11:20:55;;;;;;;1.85;0.77;;;16.20;99.90;;;;;;5026682;28;20049;-73
2022/10/31 11:23:23;;;;;;;1.38;0.80;;;16.30;99.90;;;;;;5041867;28;20045;-72
2022/10/31 11:25:56;;;;;;;1.65;0.90;;;16.40;99.90;;;;;;5041012;28;20088;-73
2022/10/31 11:28:23;;;;;;;0.93;0.82;;;16.50;99.90;;;;;;5023910;28;20047;-72
2022/10/31 11:30:57;;;;;;;0.98;0.70;;;16.70;99.90;;;;;;5024022;28;20056;-72
2022/10/31 11:33:43;;;;;;;1.02;0.70;;;16.80;99.90;;;;;;5004833;28;20049;-72
2022/10/31 11:36:22;;;;;;;1.45;0.90;;;17.00;99.90;;;;;;5042768;28;20048;-73
2022/10/31 11:38:49;;;;;;;1.48;1.05;;;17.30;99.90;;;;;;5026581;28;20041;-72
2022/10/31 11:41:16;;;;;;;1.15;0.70;;;17.60;99.90;;;;;;5042991;28;20045;-73
2022/10/31 11:44:12;;;;;;;2.63;1.02;;;17.60;99.90;;;;;;5043010;28;20480;-73
2022/10/31 11:46:39;;;;;;;0.52;0.40;;;17.70;99.90;;;;;;5039282;28;20048;-72
2022/10/31 11:49:11;;;;;;;1.10;0.70;;;17.70;99.90;;;;;;5042391;28;20057;-71
2022/10/31 11:51:38;;;;;;;1.23;0.60;;;17.70;99.90;;;;;;5010443;28;20068;-73
2022/10/31 11:54:04;;;;;;;2.28;0.70;;;17.70;99.90;;;;;;5025678;28;20057;-72
2022/10/31 11:56:42;;;;;;;0.77;0.50;;;17.80;99.90;;;;;;5027378;28;20049;-73
2022/10/31 11:59:25;;;;;;;0.50;0.50;;;17.80;99.90;;;;;;5026955;28;20432;-72
2022/10/31 12:01:52;;;;;;;0.73;0.50;;;17.90;99.90;;;;;;5027318;28;20049;-72
2022/10/31 12:04:22;;;;;;;0.45;0.40;;;18.10;99.90;;;;;;5043798;28;20088;-72
2022/10/31 12:06:49;;;;;;;1.08;0.50;;;18.40;99.90;;;;;;5025944;28;20045;-72
2022/10/31 12:09:24;;;;;;;0.90;0.50;;;18.60;99.90;;;;;;5026583;28;20044;-72
2022/10/31 12:12:28;;;;;;;1.55;0.63;;;18.70;99.90;;;;;;5042459;28;20052;-72
2022/10/31 12:15:17;;;;;;;1.15;0.50;;;18.80;99.90;;;;;;5044190;28;20056;-72
2022/10/31 12:18:21;;;;;;;1.52;0.50;;;18.80;99.90;;;;;;5043362;28;20055;-72
2022/10/31 12:20:57;;;;;;;1.20;0.35;;;18.80;99.90;;;;;;5043177;28;20421;-72
2022/10/31 12:23:36;;;;;;;1.10;0.55;;;18.90;99.90;;;;;;5040476;28;20059;-72
2022/10/31 12:26:14;;;;;;;1.15;0.47;;;18.90;99.90;;;;;;5032098;28;20136;-72
2022/10/31 12:28:44;;;;;;;0.73;0.40;;;18.90;99.90;;;;;;5022951;28;20052;-72
2022/10/31 12:31:13;;;;;;;0.90;0.60;;;19.00;99.90;;;;;;5018361;28;20049;-72
2022/10/31 12:34:17;;;;;;;0.30;0.30;;;19.00;99.90;;;;;;5023651;28;20448;-72
2022/10/31 12:36:57;;;;;;;0.60;0.40;;;19.10;99.90;;;;;;5037222;28;20571;-72
2022/10/31 12:39:42;;;;;;;0.77;0.40;;;19.20;99.90;;;;;;5018103;28;20045;-72
2022/10/31 12:42:18;;;;;;;0.40;0.30;;;19.20;99.90;;;;;;5019009;28;20127;-72
2022/10/31 12:44:48;;;;;;;0.50;0.45;;;19.40;99.90;;;;;;5021423;28;20050;-72
2022/10/31 12:47:14;;;;;;;1.20;0.57;;;19.40;99.90;;;;;;5020569;28;20060;-72
2022/10/31 12:49:55;;;;;;;1.00;0.65;;;19.40;99.90;;;;;;5026693;28;20049;-72
2022/10/31 12:52:52;;;;;;;0.40;0.32;;;19.50;99.90;;;;;;5012997;28;20052;-73
2022/10/31 12:55:29;;;;;;;0.43;0.40;;;19.70;99.90;;;;;;5031609;28;20578;-72
2022/10/31 12:58:22;;;;;;;1.13;0.70;;;19.90;99.90;;;;;;5010839;28;20053;-72
2022/10/31 13:01:01;;;;;;;1.13;0.60;;;19.90;99.90;;;;;;5029639;28;20049;-73
2022/10/31 13:03:30;;;;;;;0.65;0.40;;;19.90;99.90;;;;;;5023901;28;20502;-72
2022/10/31 13:05:59;;;;;;;0.55;0.40;;;19.90;99.90;;;;;;5016313;28;20642;-72
2022/10/31 13:08:40;;;;;;;1.35;0.80;;;19.70;99.90;;;;;;5008739;28;20045;-72
2022/10/31 13:11:46;;;;;;;0.73;0.50;;;19.40;99.90;;;;;;5014172;28;20140;-72
2022/10/31 13:14:34;;;;;;;1.17;0.45;;;19.20;99.90;;;;;;4991835;28;20073;-72